sensor_id;sensor_type;location;lat;lon;timestamp;pressure;altitude;pressure_sealevel;temperature;humidity
41202;BME280;26936;50.524;8.684;2023-04-19T00:00:37;100265.41;;;10.13;100.00
41202;BME280;26936;50.524;8.684;2023-04-19T00:03:04;100262.16;;;10.15;100.00
41202;BME280;26936;50.524;8.684;2023-04-19T00:05:30;100257.75;;;10.14;100.00
41202;BME280;26936;50.524;8.684;2023-04-19T00:07:55;100255.84;;;10.07;100.00
41202;BME280;26936;50.524;8.684;2023-04-19T00:10:20;100251.44;;;10.06;100.00
41202;BME280;26936;50.524;8.684;2023-04-19T00:12:46;100255.84;;;10.07;100.00
41202;BME280;26936;50.524;8.684;2023-04-19T00:15:11;100249.41;;;10.07;100.00
41202;BME280;26936;50.524;8.684;2023-04-19T00:17:37;100251.03;;;10.08;100.00
41202;BME280;26936;50.524;8.684;2023-04-19T00:20:02;100250.91;;;10.15;100.00
41202;BME280;26936;50.524;8.684;2023-04-19T00:22:28;100246.19;;;10.08;100.00
41202;BME280;26936;50.524;8.684;2023-04-19T00:24:53;100241.34;;;10.09;100.00
41202;BME280;26936;50.524;8.684;2023-04-19T00:27:18;100238.16;;;10.07;100.00
41202;BME280;26936;50.524;8.684;2023-04-19T00:29:44;100236.13;;;10.07;100.00
41202;BME280;26936;50.524;8.684;2023-04-19T00:32:09;100232.06;;;10.12;100.00
41202;BME280;26936;50.524;8.684;2023-04-19T00:34:35;100226.44;;;10.12;100.00
41202;BME280;26936;50.524;8.684;2023-04-19T00:37:00;100226.81;;;10.14;100.00
41202;BME280;26936;50.524;8.684;2023-04-19T00:39:25;100221.25;;;10.07;100.00
41202;BME280;26936;50.524;8.684;2023-04-19T00:41:51;100226.97;;;10.03;100.00
41202;BME280;26936;50.524;8.684;2023-04-19T00:44:17;100221.25;;;10.07;100.00
41202;BME280;26936;50.524;8.684;2023-04-19T00:46:42;100223.59;;;10.12;100.00
41202;BME280;26936;50.524;8.684;2023-04-19T00:49:08;100218.09;;;10.05;100.00
41202;BME280;26936;50.524;8.684;2023-04-19T00:51:34;100217.34;;;10.01;100.00
41202;BME280;26936;50.524;8.684;2023-04-19T00:54:01;100225.00;;;10.00;100.00
41202;BME280;26936;50.524;8.684;2023-04-19T00:56:27;100216.53;;;10.00;100.00
41202;BME280;26936;50.524;8.684;2023-04-19T00:58:53;100218.53;;;10.03;100.00
41202;BME280;26936;50.524;8.684;2023-04-19T01:01:20;100212.91;;;10.03;100.00
41202;BME280;26936;50.524;8.684;2023-04-19T01:03:45;100214.03;;;10.06;100.00
41202;BME280;26936;50.524;8.684;2023-04-19T01:06:11;100206.84;;;10.05;100.00
41202;BME280;26936;50.524;8.684;2023-04-19T01:08:37;100203.59;;;10.06;100.00
41202;BME280;26936;50.524;8.684;2023-04-19T01:11:03;100204.84;;;10.02;100.00
41202;BME280;26936;50.524;8.684;2023-04-19T01:13:29;100208.84;;;10.04;100.00
41202;BME280;26936;50.524;8.684;2023-04-19T01:15:54;100204.50;;;10.00;100.00
41202;BME280;26936;50.524;8.684;2023-04-19T01:18:20;100204.25;;;9.91;100.00
41202;BME280;26936;50.524;8.684;2023-04-19T01:20:48;100201.00;;;9.92;100.00
41202;BME280;26936;50.524;8.684;2023-04-19T01:23:13;100197.72;;;9.97;100.00
41202;BME280;26936;50.524;8.684;2023-04-19T01:25:39;100203.78;;;9.96;100.00
41202;BME280;26936;50.524;8.684;2023-04-19T01:28:04;100192.56;;;9.92;100.00
41202;BME280;26936;50.524;8.684;2023-04-19T01:30:30;100195.88;;;9.87;100.00
41202;BME280;26936;50.524;8.684;2023-04-19T01:32:55;100201.88;;;9.89;100.00
41202;BME280;26936;50.524;8.684;2023-04-19T01:35:20;100192.56;;;9.92;100.00
41202;BME280;26936;50.524;8.684;2023-04-19T01:37:46;100196.63;;;9.91;100.00
41202;BME280;26936;50.524;8.684;2023-04-19T01:40:11;100192.16;;;9.94;100.00
41202;BME280;26936;50.524;8.684;2023-04-19T01:42:37;100188.25;;;9.88;100.00
41202;BME280;26936;50.524;8.684;2023-04-19T01:45:02;100189.00;;;9.92;100.00
41202;BME280;26936;50.524;8.684;2023-04-19T01:47:27;100184.19;;;9.89;100.00
41202;BME280;26936;50.524;8.684;2023-04-19T01:49:53;100186.50;;;9.94;100.00
41202;BME280;26936;50.524;8.684;2023-04-19T01:52:18;100186.50;;;9.94;100.00
41202;BME280;26936;50.524;8.684;2023-04-19T01:54:43;100174.06;;;9.95;100.00
41202;BME280;26936;50.524;8.684;2023-04-19T01:57:09;100177.31;;;9.93;100.00
41202;BME280;26936;50.524;8.684;2023-04-19T01:59:34;100176.38;;;10.00;100.00
41202;BME280;26936;50.524;8.684;2023-04-19T02:01:59;100181.19;;;9.99;100.00
41202;BME280;26936;50.524;8.684;2023-04-19T02:04:24;100174.06;;;9.95;100.00
41202;BME280;26936;50.524;8.684;2023-04-19T02:06:50;100174.78;;;9.99;100.00
41202;BME280;26936;50.524;8.684;2023-04-19T02:09:15;100181.94;;;10.03;100.00
41202;BME280;26936;50.524;8.684;2023-04-19T02:11:40;100173.75;;;10.12;100.00
41202;BME280;26936;50.524;8.684;2023-04-19T02:14:05;100173.06;;;10.05;100.00
41202;BME280;26936;50.524;8.684;2023-04-19T02:16:31;100162.31;;;10.00;100.00
41202;BME280;26936;50.524;8.684;2023-04-19T02:18:56;100165.38;;;10.09;100.00
41202;BME280;26936;50.524;8.684;2023-04-19T02:21:22;100163.78;;;10.08;100.00
41202;BME280;26936;50.524;8.684;2023-04-19T02:23:48;100161.00;;;10.04;100.00
41202;BME280;26936;50.524;8.684;2023-04-19T02:26:13;100159.50;;;10.00;100.00
41202;BME280;26936;50.524;8.684;2023-04-19T02:28:38;100148.16;;;10.03;100.00
41202;BME280;26936;50.524;8.684;2023-04-19T02:31:05;100145.47;;;9.96;100.00
41202;BME280;26936;50.524;8.684;2023-04-19T02:33:30;100153.00;;;10.03;100.00
41202;BME280;26936;50.524;8.684;2023-04-19T02:35:55;100148.28;;;9.96;100.00
41202;BME280;26936;50.524;8.684;2023-04-19T02:38:21;100152.03;;;9.90;100.00
41202;BME280;26936;50.524;8.684;2023-04-19T02:40:46;100153.38;;;10.05;100.00
41202;BME280;26936;50.524;8.684;2023-04-19T02:43:11;100143.53;;;9.93;100.00
41202;BME280;26936;50.524;8.684;2023-04-19T02:45:37;100147.91;;;9.94;100.00
41202;BME280;26936;50.524;8.684;2023-04-19T02:48:02;100149.09;;;9.97;100.00
41202;BME280;26936;50.524;8.684;2023-04-19T02:50:27;100147.50;;;9.96;100.00
41202;BME280;26936;50.524;8.684;2023-04-19T02:52:52;100140.66;;;9.97;100.00
41202;BME280;26936;50.524;8.684;2023-04-19T02:55:18;100137.59;;;9.88;100.00
41202;BME280;26936;50.524;8.684;2023-04-19T02:57:43;100140.03;;;9.86;100.00
41202;BME280;26936;50.524;8.684;2023-04-19T03:00:09;100144.75;;;9.92;100.00
41202;BME280;26936;50.524;8.684;2023-04-19T03:02:35;100142.66;;;9.96;100.00
41202;BME280;26936;50.524;8.684;2023-04-19T03:05:01;100134.72;;;9.91;100.00
41202;BME280;26936;50.524;8.684;2023-04-19T03:07:26;100142.28;;;9.94;100.00
41202;BME280;26936;50.524;8.684;2023-04-19T03:09:51;100131.53;;;9.89;100.00
41202;BME280;26936;50.524;8.684;2023-04-19T03:12:16;100129.91;;;9.92;100.00
41202;BME280;26936;50.524;8.684;2023-04-19T03:14:42;100138.34;;;9.92;100.00
41202;BME280;26936;50.524;8.684;2023-04-19T03:17:07;100133.16;;;9.90;100.00
41202;BME280;26936;50.524;8.684;2023-04-19T03:19:32;100127.41;;;9.94;100.00
41202;BME280;26936;50.524;8.684;2023-04-19T03:21:58;100132.13;;;10.00;100.00
41202;BME280;26936;50.524;8.684;2023-04-19T03:24:27;100122.97;;;9.96;100.00
41202;BME280;26936;50.524;8.684;2023-04-19T03:26:53;100123.47;;;9.91;100.00
41202;BME280;26936;50.524;8.684;2023-04-19T03:29:19;100120.28;;;9.89;100.00
41202;BME280;26936;50.524;8.684;2023-04-19T03:31:44;100115.88;;;9.88;100.00
41202;BME280;26936;50.524;8.684;2023-04-19T03:34:09;100123.84;;;9.93;100.00
41202;BME280;26936;50.524;8.684;2023-04-19T03:36:34;100119.13;;;9.87;100.00
41202;BME280;26936;50.524;8.684;2023-04-19T03:39:02;100118.28;;;9.90;100.00
41202;BME280;26936;50.524;8.684;2023-04-19T03:41:27;100113.34;;;9.94;100.00
41202;BME280;26936;50.524;8.684;2023-04-19T03:43:52;100106.59;;;9.91;100.00
41202;BME280;26936;50.524;8.684;2023-04-19T03:46:18;100106.47;;;9.98;100.00
41202;BME280;26936;50.524;8.684;2023-04-19T03:48:43;100105.28;;;9.96;100.00
41202;BME280;26936;50.524;8.684;2023-04-19T03:51:08;100099.66;;;9.96;100.00
41202;BME280;26936;50.524;8.684;2023-04-19T03:53:34;100104.19;;;9.90;100.00
41202;BME280;26936;50.524;8.684;2023-04-19T03:56:00;100105.41;;;9.89;100.00
41202;BME280;26936;50.524;8.684;2023-04-19T03:58:25;100106.47;;;9.98;100.00
41202;BME280;26936;50.524;8.684;2023-04-19T04:00:50;100108.16;;;9.92;100.00
41202;BME280;26936;50.524;8.684;2023-04-19T04:03:16;100107.38;;;9.92;100.00
41202;BME280;26936;50.524;8.684;2023-04-19T04:05:41;100106.16;;;9.93;100.00
41202;BME280;26936;50.524;8.684;2023-04-19T04:08:06;100109.72;;;9.97;100.00
41202;BME280;26936;50.524;8.684;2023-04-19T04:10:31;100109.34;;;9.95;100.00
41202;BME280;26936;50.524;8.684;2023-04-19T04:12:57;100106.59;;;9.91;100.00
41202;BME280;26936;50.524;8.684;2023-04-19T04:15:22;100104.19;;;9.90;100.00
41202;BME280;26936;50.524;8.684;2023-04-19T04:17:47;100112.69;;;9.86;100.00
41202;BME280;26936;50.524;8.684;2023-04-19T04:20:12;100107.00;;;9.90;100.00
41202;BME280;26936;50.524;8.684;2023-04-19T04:22:41;100117.91;;;9.88;100.00
41202;BME280;26936;50.524;8.684;2023-04-19T04:25:08;100110.69;;;9.87;100.00
41202;BME280;26936;50.524;8.684;2023-04-19T04:27:33;100107.88;;;9.87;100.00
41202;BME280;26936;50.524;8.684;2023-04-19T04:29:58;100107.88;;;9.87;100.00
41202;BME280;26936;50.524;8.684;2023-04-19T04:32:25;100112.22;;;9.91;100.00
41202;BME280;26936;50.524;8.684;2023-04-19T04:34:51;100118.34;;;9.86;100.00
41202;BME280;26936;50.524;8.684;2023-04-19T04:37:16;100113.13;;;9.85;100.00
41202;BME280;26936;50.524;8.684;2023-04-19T04:39:42;100119.91;;;9.87;100.00
41202;BME280;26936;50.524;8.684;2023-04-19T04:42:07;100107.13;;;9.83;100.00
41202;BME280;26936;50.524;8.684;2023-04-19T04:44:35;100111.13;;;9.85;100.00
41202;BME280;26936;50.524;8.684;2023-04-19T04:47:01;100120.28;;;9.89;100.00
41202;BME280;26936;50.524;8.684;2023-04-19T04:49:26;100109.84;;;9.90;100.00
41202;BME280;26936;50.524;8.684;2023-04-19T04:51:52;100116.31;;;9.87;100.00
41202;BME280;26936;50.524;8.684;2023-04-19T04:54:17;100115.94;;;9.85;100.00
41202;BME280;26936;50.524;8.684;2023-04-19T04:56:42;100110.63;;;9.90;100.00
41202;BME280;26936;50.524;8.684;2023-04-19T04:59:07;100107.38;;;9.92;100.00
41202;BME280;26936;50.524;8.684;2023-04-19T05:01:34;100117.47;;;9.89;100.00
41202;BME280;26936;50.524;8.684;2023-04-19T05:03:59;100117.03;;;9.91;100.00
41202;BME280;26936;50.524;8.684;2023-04-19T05:06:25;100119.06;;;9.90;100.00
41202;BME280;26936;50.524;8.684;2023-04-19T05:08:50;100117.09;;;9.87;100.00
41202;BME280;26936;50.524;8.684;2023-04-19T05:11:15;100123.03;;;9.93;100.00
41202;BME280;26936;50.524;8.684;2023-04-19T05:13:41;100118.66;;;9.92;99.79
41202;BME280;26936;50.524;8.684;2023-04-19T05:16:06;100116.53;;;9.96;99.45
41202;BME280;26936;50.524;8.684;2023-04-19T05:18:31;100112.91;;;9.95;98.45
41202;BME280;26936;50.524;8.684;2023-04-19T05:20:57;100116.97;;;9.94;96.99
41202;BME280;26936;50.524;8.684;2023-04-19T05:23:22;100120.16;;;9.96;97.61
41202;BME280;26936;50.524;8.684;2023-04-19T05:25:47;100124.47;;;10.01;97.05
41202;BME280;26936;50.524;8.684;2023-04-19T05:28:13;100113.72;;;9.96;94.84
41202;BME280;26936;50.524;8.684;2023-04-19T05:30:38;100115.34;;;9.97;95.23
41202;BME280;26936;50.524;8.684;2023-04-19T05:33:04;100121.78;;;9.94;95.38
41202;BME280;26936;50.524;8.684;2023-04-19T05:35:29;100124.47;;;10.01;94.56
41202;BME280;26936;50.524;8.684;2023-04-19T05:37:54;100124.91;;;9.99;95.02
41202;BME280;26936;50.524;8.684;2023-04-19T05:40:20;100116.09;;;9.97;93.85
41202;BME280;26936;50.524;8.684;2023-04-19T05:42:47;100113.34;;;9.94;92.37
41202;BME280;26936;50.524;8.684;2023-04-19T05:45:12;100118.28;;;9.90;92.69
41202;BME280;26936;50.524;8.684;2023-04-19T05:47:39;100121.94;;;9.87;91.35
41202;BME280;26936;50.524;8.684;2023-04-19T05:50:05;100122.72;;;9.87;91.28
41202;BME280;26936;50.524;8.684;2023-04-19T05:52:30;100114.66;;;9.89;91.27
41202;BME280;26936;50.524;8.684;2023-04-19T05:54:56;100105.72;;;9.94;91.55
41202;BME280;26936;50.524;8.684;2023-04-19T05:57:21;100113.44;;;9.90;91.90
41202;BME280;26936;50.524;8.684;2023-04-19T05:59:46;100119.72;;;9.98;91.10
41202;BME280;26936;50.524;8.684;2023-04-19T06:02:11;100110.91;;;9.96;90.66
41202;BME280;26936;50.524;8.684;2023-04-19T06:04:37;100113.13;;;10.08;91.08
41202;BME280;26936;50.524;8.684;2023-04-19T06:07:02;100111.81;;;10.12;89.87
41202;BME280;26936;50.524;8.684;2023-04-19T06:09:27;100110.34;;;10.04;89.66
41202;BME280;26936;50.524;8.684;2023-04-19T06:11:52;100109.34;;;9.95;88.73
41202;BME280;26936;50.524;8.684;2023-04-19T06:14:18;100106.47;;;9.98;88.92
41202;BME280;26936;50.524;8.684;2023-04-19T06:16:44;100108.09;;;9.96;88.87
41202;BME280;26936;50.524;8.684;2023-04-19T06:19:09;100111.28;;;9.98;88.57
41202;BME280;26936;50.524;8.684;2023-04-19T06:21:34;100101.59;;;9.99;88.72
41202;BME280;26936;50.524;8.684;2023-04-19T06:24:00;100113.59;;;10.03;88.97
41202;BME280;26936;50.524;8.684;2023-04-19T06:26:25;100111.03;;;10.12;88.09
41202;BME280;26936;50.524;8.684;2023-04-19T06:28:50;100110.69;;;10.10;87.23
41202;BME280;26936;50.524;8.684;2023-04-19T06:31:15;100114.31;;;10.07;86.87
41202;BME280;26936;50.524;8.684;2023-04-19T06:33:41;100109.06;;;10.09;86.31
41202;BME280;26936;50.524;8.684;2023-04-19T06:36:06;100109.72;;;9.97;86.98
41202;BME280;26936;50.524;8.684;2023-04-19T06:38:32;100112.66;;;9.90;87.49
41202;BME280;26936;50.524;8.684;2023-04-19T06:40:57;100115.97;;;10.04;85.81
41202;BME280;26936;50.524;8.684;2023-04-19T06:43:23;100112.53;;;9.97;86.54
41202;BME280;26936;50.524;8.684;2023-04-19T06:45:48;100114.03;;;10.01;86.04
41202;BME280;26936;50.524;8.684;2023-04-19T06:48:13;100108.63;;;10.10;85.26
41202;BME280;26936;50.524;8.684;2023-04-19T06:50:38;100104.72;;;10.04;85.60
41202;BME280;26936;50.524;8.684;2023-04-19T06:53:04;100105.75;;;10.14;85.49
41202;BME280;26936;50.524;8.684;2023-04-19T06:55:29;100101.88;;;10.08;85.22
41202;BME280;26936;50.524;8.684;2023-04-19T06:57:55;100103.25;;;10.19;84.96
41202;BME280;26936;50.524;8.684;2023-04-19T07:00:21;100104.81;;;10.40;84.06
41202;BME280;26936;50.524;8.684;2023-04-19T07:02:48;100104.78;;;10.59;82.39
41202;BME280;26936;50.524;8.684;2023-04-19T07:05:13;100105.19;;;10.77;81.28
41202;BME280;26936;50.524;8.684;2023-04-19T07:07:39;100109.75;;;11.07;78.80
41202;BME280;26936;50.524;8.684;2023-04-19T07:10:06;100094.50;;;11.05;78.75
41202;BME280;26936;50.524;8.684;2023-04-19T07:12:32;100095.50;;;11.14;79.18
41202;BME280;26936;50.524;8.684;2023-04-19T07:14:57;100101.38;;;11.36;78.03
41202;BME280;26936;50.524;8.684;2023-04-19T07:17:22;100099.63;;;11.42;75.57
41202;BME280;26936;50.524;8.684;2023-04-19T07:19:48;100092.22;;;11.32;76.17
41202;BME280;26936;50.524;8.684;2023-04-19T07:22:13;100098.00;;;11.57;76.19
41202;BME280;26936;50.524;8.684;2023-04-19T07:24:39;100092.66;;;12.07;73.91
41202;BME280;26936;50.524;8.684;2023-04-19T07:27:08;100087.13;;;12.03;71.65
41202;BME280;26936;50.524;8.684;2023-04-19T07:29:34;100086.53;;;12.37;71.41
41202;BME280;26936;50.524;8.684;2023-04-19T07:31:59;100084.34;;;12.28;69.98
41202;BME280;26936;50.524;8.684;2023-04-19T07:34:26;100080.84;;;11.96;70.70
41202;BME280;26936;50.524;8.684;2023-04-19T07:36:51;100081.94;;;12.14;71.98
41202;BME280;26936;50.524;8.684;2023-04-19T07:39:16;100079.97;;;12.27;71.35
41202;BME280;26936;50.524;8.684;2023-04-19T07:41:42;100079.13;;;12.14;71.94
41202;BME280;26936;50.524;8.684;2023-04-19T07:44:08;100079.75;;;12.35;71.13
41202;BME280;26936;50.524;8.684;2023-04-19T07:46:33;100079.22;;;12.40;69.33
41202;BME280;26936;50.524;8.684;2023-04-19T07:48:58;100075.41;;;12.71;68.23
41202;BME280;26936;50.524;8.684;2023-04-19T07:51:23;100072.53;;;13.59;66.55
41202;BME280;26936;50.524;8.684;2023-04-19T07:53:49;100070.31;;;13.88;64.07
41202;BME280;26936;50.524;8.684;2023-04-19T07:56:14;100072.22;;;13.91;62.77
41202;BME280;26936;50.524;8.684;2023-04-19T07:58:39;100073.22;;;13.97;63.02
41202;BME280;26936;50.524;8.684;2023-04-19T08:01:05;100075.16;;;14.43;61.11
41202;BME280;26936;50.524;8.684;2023-04-19T08:03:32;100070.69;;;15.25;57.74
41202;BME280;26936;50.524;8.684;2023-04-19T08:06:00;100072.78;;;14.94;57.97
41202;BME280;26936;50.524;8.684;2023-04-19T08:08:26;100072.47;;;15.41;57.27
41202;BME280;26936;50.524;8.684;2023-04-19T08:10:52;100075.66;;;15.52;57.02
41202;BME280;26936;50.524;8.684;2023-04-19T08:13:19;100069.44;;;15.35;56.86
41202;BME280;26936;50.524;8.684;2023-04-19T08:15:44;100068.78;;;15.98;55.26
41202;BME280;26936;50.524;8.684;2023-04-19T08:18:10;100072.25;;;15.84;55.35
41202;BME280;26936;50.524;8.684;2023-04-19T08:20:35;100076.66;;;16.12;54.65
41202;BME280;26936;50.524;8.684;2023-04-19T08:23:01;100081.41;;;15.97;54.06
41202;BME280;26936;50.524;8.684;2023-04-19T08:25:26;100077.13;;;16.10;53.72
41202;BME280;26936;50.524;8.684;2023-04-19T08:27:53;100071.41;;;16.74;53.20
41202;BME280;26936;50.524;8.684;2023-04-19T08:30:18;100064.16;;;16.64;52.92
41202;BME280;26936;50.524;8.684;2023-04-19T08:32:44;100073.25;;;16.86;51.92
41202;BME280;26936;50.524;8.684;2023-04-19T08:35:09;100068.13;;;16.12;52.89
41202;BME280;26936;50.524;8.684;2023-04-19T08:37:34;100072.09;;;16.33;52.45
41202;BME280;26936;50.524;8.684;2023-04-19T08:40:00;100077.47;;;15.28;55.55
41202;BME280;26936;50.524;8.684;2023-04-19T08:42:25;100081.81;;;15.41;55.04
41202;BME280;26936;50.524;8.684;2023-04-19T08:44:51;100082.59;;;15.60;55.03
41202;BME280;26936;50.524;8.684;2023-04-19T08:47:17;100076.69;;;16.03;52.95
41202;BME280;26936;50.524;8.684;2023-04-19T08:49:44;100079.97;;;15.92;52.70
41202;BME280;26936;50.524;8.684;2023-04-19T08:52:12;100064.16;;;15.16;54.57
41202;BME280;26936;50.524;8.684;2023-04-19T08:54:37;100074.44;;;14.82;56.31
41202;BME280;26936;50.524;8.684;2023-04-19T08:57:03;100078.31;;;14.24;57.74
41202;BME280;26936;50.524;8.684;2023-04-19T08:59:29;100067.19;;;14.81;56.32
41202;BME280;26936;50.524;8.684;2023-04-19T09:02:00;100062.66;;;15.33;54.66
41202;BME280;26936;50.524;8.684;2023-04-19T09:04:25;100062.41;;;15.09;53.99
41202;BME280;26936;50.524;8.684;2023-04-19T09:06:51;100054.31;;;15.38;54.81
41202;BME280;26936;50.524;8.684;2023-04-19T09:09:25;100052.31;;;15.57;54.34
41202;BME280;26936;50.524;8.684;2023-04-19T09:11:51;100063.59;;;15.30;54.01
41202;BME280;26936;50.524;8.684;2023-04-19T09:14:18;100057.09;;;15.20;53.34
41202;BME280;26936;50.524;8.684;2023-04-19T09:16:44;100046.31;;;15.06;54.20
41202;BME280;26936;50.524;8.684;2023-04-19T09:19:10;100050.31;;;15.93;52.55
41202;BME280;26936;50.524;8.684;2023-04-19T09:21:40;100045.84;;;16.28;52.90
41202;BME280;26936;50.524;8.684;2023-04-19T09:24:06;100045.41;;;16.21;50.53
41202;BME280;26936;50.524;8.684;2023-04-19T09:26:32;100036.06;;;16.39;49.85
41202;BME280;26936;50.524;8.684;2023-04-19T09:28:59;100041.47;;;15.82;51.26
41202;BME280;26936;50.524;8.684;2023-04-19T09:31:27;100045.41;;;15.67;50.53
41202;BME280;26936;50.524;8.684;2023-04-19T09:33:53;100043.22;;;15.71;50.15
41202;BME280;26936;50.524;8.684;2023-04-19T09:36:30;100044.28;;;15.07;52.66
41202;BME280;26936;50.524;8.684;2023-04-19T09:38:56;100038.13;;;14.99;52.70
41202;BME280;26936;50.524;8.684;2023-04-19T09:41:23;100031.66;;;15.47;51.86
41202;BME280;26936;50.524;8.684;2023-04-19T09:43:48;100033.13;;;15.79;52.74
41202;BME280;26936;50.524;8.684;2023-04-19T09:46:30;100041.72;;;15.39;51.14
41202;BME280;26936;50.524;8.684;2023-04-19T09:51:45;100020.91;;;16.33;49.93
41202;BME280;26936;50.524;8.684;2023-04-19T09:54:12;100030.25;;;16.15;48.84
41202;BME280;26936;50.524;8.684;2023-04-19T09:56:38;100033.25;;;16.11;49.06
41202;BME280;26936;50.524;8.684;2023-04-19T09:59:05;100026.47;;;15.64;49.01
41202;BME280;26936;50.524;8.684;2023-04-19T10:01:45;100026.81;;;15.84;49.40
41202;BME280;26936;50.524;8.684;2023-04-19T10:04:13;100020.94;;;16.05;49.46
41202;BME280;26936;50.524;8.684;2023-04-19T10:06:49;100017.47;;;15.65;48.81
41202;BME280;26936;50.524;8.684;2023-04-19T10:09:17;100020.00;;;15.63;49.21
41202;BME280;26936;50.524;8.684;2023-04-19T10:11:47;100014.63;;;15.92;49.33
41202;BME280;26936;50.524;8.684;2023-04-19T10:14:14;100013.19;;;16.33;48.09
41202;BME280;26936;50.524;8.684;2023-04-19T10:16:39;100004.88;;;17.04;46.12
41202;BME280;26936;50.524;8.684;2023-04-19T10:19:07;100003.06;;;17.24;45.89
41202;BME280;26936;50.524;8.684;2023-04-19T10:21:34;100004.00;;;18.07;43.64
41202;BME280;26936;50.524;8.684;2023-04-19T10:24:00;100004.44;;;18.29;42.38
41202;BME280;26936;50.524;8.684;2023-04-19T10:26:26;99991.63;;;18.24;42.46
41202;BME280;26936;50.524;8.684;2023-04-19T10:28:55;99994.53;;;17.15;42.37
41202;BME280;26936;50.524;8.684;2023-04-19T10:31:25;99996.13;;;17.40;42.77
41202;BME280;26936;50.524;8.684;2023-04-19T10:33:51;99981.66;;;17.76;42.28
41202;BME280;26936;50.524;8.684;2023-04-19T10:36:17;99976.50;;;18.33;42.28
41202;BME280;26936;50.524;8.684;2023-04-19T10:38:47;99986.06;;;18.59;40.80
41202;BME280;26936;50.524;8.684;2023-04-19T10:41:17;99980.34;;;17.39;40.04
41202;BME280;26936;50.524;8.684;2023-04-19T10:46:14;99983.91;;;16.60;44.32
41202;BME280;26936;50.524;8.684;2023-04-19T10:49:01;99987.75;;;17.36;41.85
41202;BME280;26936;50.524;8.684;2023-04-19T10:53:57;99978.63;;;16.76;40.03
41202;BME280;26936;50.524;8.684;2023-04-19T10:56:55;99964.84;;;17.64;40.36
41202;BME280;26936;50.524;8.684;2023-04-19T10:59:22;99968.53;;;18.08;39.77
41202;BME280;26936;50.524;8.684;2023-04-19T11:01:53;99963.97;;;17.87;39.66
41202;BME280;26936;50.524;8.684;2023-04-19T11:04:22;99954.25;;;17.93;39.80
41202;BME280;26936;50.524;8.684;2023-04-19T11:09:22;99948.19;;;18.15;37.68
41202;BME280;26936;50.524;8.684;2023-04-19T11:11:52;99954.88;;;18.12;38.16
41202;BME280;26936;50.524;8.684;2023-04-19T11:14:19;99951.50;;;17.22;37.50
41202;BME280;26936;50.524;8.684;2023-04-19T11:16:45;99944.19;;;16.23;38.97
41202;BME280;26936;50.524;8.684;2023-04-19T11:19:16;99945.97;;;16.03;39.70
41202;BME280;26936;50.524;8.684;2023-04-19T11:21:43;99955.13;;;15.98;41.07
41202;BME280;26936;50.524;8.684;2023-04-19T11:24:09;99941.94;;;16.46;40.04
41202;BME280;26936;50.524;8.684;2023-04-19T11:26:35;99929.66;;;16.72;40.08
41202;BME280;26936;50.524;8.684;2023-04-19T11:29:00;99936.38;;;16.42;40.51
41202;BME280;26936;50.524;8.684;2023-04-19T11:31:26;99926.63;;;16.34;39.66
41202;BME280;26936;50.524;8.684;2023-04-19T11:33:51;99934.84;;;17.06;40.58
41202;BME280;26936;50.524;8.684;2023-04-19T11:36:17;99929.59;;;16.49;38.56
41202;BME280;26936;50.524;8.684;2023-04-19T11:38:46;99932.19;;;17.03;40.00
41202;BME280;26936;50.524;8.684;2023-04-19T11:41:12;99927.38;;;16.44;38.77
41202;BME280;26936;50.524;8.684;2023-04-19T11:43:37;99919.53;;;16.71;38.95
41202;BME280;26936;50.524;8.684;2023-04-19T11:46:07;99917.44;;;16.48;38.44
41202;BME280;26936;50.524;8.684;2023-04-19T11:48:33;99913.50;;;15.77;40.05
41202;BME280;26936;50.524;8.684;2023-04-19T11:50:59;99915.88;;;15.33;40.27
41202;BME280;26936;50.524;8.684;2023-04-19T11:53:25;99905.75;;;15.14;39.71
41202;BME280;26936;50.524;8.684;2023-04-19T11:55:52;99897.09;;;15.36;40.64
41202;BME280;26936;50.524;8.684;2023-04-19T11:58:35;99904.38;;;15.37;41.09
41202;BME280;26936;50.524;8.684;2023-04-19T12:01:06;99884.19;;;15.62;39.68
41202;BME280;26936;50.524;8.684;2023-04-19T12:03:33;99879.66;;;16.06;41.47
41202;BME280;26936;50.524;8.684;2023-04-19T12:06:00;99882.50;;;16.15;39.37
41202;BME280;26936;50.524;8.684;2023-04-19T12:08:35;99877.50;;;16.33;40.03
41202;BME280;26936;50.524;8.684;2023-04-19T12:11:02;99883.78;;;15.96;39.58
41202;BME280;26936;50.524;8.684;2023-04-19T12:13:28;99884.16;;;15.89;40.19
41202;BME280;26936;50.524;8.684;2023-04-19T12:15:55;99884.16;;;15.80;40.43
41202;BME280;26936;50.524;8.684;2023-04-19T12:18:21;99873.00;;;15.40;37.94
41202;BME280;26936;50.524;8.684;2023-04-19T12:20:48;99869.19;;;15.70;39.79
41202;BME280;26936;50.524;8.684;2023-04-19T12:23:14;99853.84;;;15.86;38.42
41202;BME280;26936;50.524;8.684;2023-04-19T12:25:41;99858.75;;;15.76;37.88
41202;BME280;26936;50.524;8.684;2023-04-19T12:28:06;99860.41;;;15.41;38.65
41202;BME280;26936;50.524;8.684;2023-04-19T12:30:32;99854.06;;;15.55;38.19
41202;BME280;26936;50.524;8.684;2023-04-19T12:32:59;99861.34;;;15.56;39.00
41202;BME280;26936;50.524;8.684;2023-04-19T12:35:25;99852.91;;;15.80;38.31
41202;BME280;26936;50.524;8.684;2023-04-19T12:37:52;99845.06;;;15.21;40.86
41202;BME280;26936;50.524;8.684;2023-04-19T12:40:18;99844.94;;;15.51;38.86
41202;BME280;26936;50.524;8.684;2023-04-19T12:42:43;99832.13;;;15.65;38.63
41202;BME280;26936;50.524;8.684;2023-04-19T12:45:09;99831.78;;;15.72;37.68
41202;BME280;26936;50.524;8.684;2023-04-19T12:47:35;99843.34;;;15.59;36.93
41202;BME280;26936;50.524;8.684;2023-04-19T12:50:01;99848.81;;;14.81;35.70
41202;BME280;26936;50.524;8.684;2023-04-19T12:52:26;99850.25;;;14.68;37.28
41202;BME280;26936;50.524;8.684;2023-04-19T12:54:51;99842.84;;;14.88;36.27